sensor_id;sensor_type;location;lat;lon;timestamp;temperature;humidity
60039;DHT22;45916;52.734;6.544;2022-10-17T00:01:34;13.60;99.90
60039;DHT22;45916;52.734;6.544;2022-10-17T00:03:59;13.60;99.90
60039;DHT22;45916;52.734;6.544;2022-10-17T00:06:25;13.60;99.90
60039;DHT22;45916;52.734;6.544;2022-10-17T00:08:50;13.60;99.90
60039;DHT22;45916;52.734;6.544;2022-10-17T00:11:19;13.50;99.90
60039;DHT22;45916;52.734;6.544;2022-10-17T00:13:46;13.50;99.90
60039;DHT22;45916;52.734;6.544;2022-10-17T00:16:12;13.50;99.90
60039;DHT22;45916;52.734;6.544;2022-10-17T00:18:38;13.50;99.90
60039;DHT22;45916;52.734;6.544;2022-10-17T00:21:03;13.50;99.90
60039;DHT22;45916;52.734;6.544;2022-10-17T00:23:29;13.50;99.90
60039;DHT22;45916;52.734;6.544;2022-10-17T00:26:03;13.50;99.90
60039;DHT22;45916;52.734;6.544;2022-10-17T00:28:30;13.40;99.90
60039;DHT22;45916;52.734;6.544;2022-10-17T00:31:01;13.40;99.90
60039;DHT22;45916;52.734;6.544;2022-10-17T00:33:28;13.40;99.90
60039;DHT22;45916;52.734;6.544;2022-10-17T00:36:05;13.40;99.90
60039;DHT22;45916;52.734;6.544;2022-10-17T00:38:32;13.40;99.90
60039;DHT22;45916;52.734;6.544;2022-10-17T00:40:58;13.40;99.90
60039;DHT22;45916;52.734;6.544;2022-10-17T00:43:24;13.40;99.90
60039;DHT22;45916;52.734;6.544;2022-10-17T00:45:51;13.40;99.90
60039;DHT22;45916;52.734;6.544;2022-10-17T00:48:17;13.50;99.90
60039;DHT22;45916;52.734;6.544;2022-10-17T00:50:45;13.50;99.90
60039;DHT22;45916;52.734;6.544;2022-10-17T00:53:12;13.50;99.90
60039;DHT22;45916;52.734;6.544;2022-10-17T00:55:45;13.50;99.90
60039;DHT22;45916;52.734;6.544;2022-10-17T00:58:12;13.50;99.90
60039;DHT22;45916;52.734;6.544;2022-10-17T01:00:38;13.50;99.90
60039;DHT22;45916;52.734;6.544;2022-10-17T01:03:04;13.50;99.90
60039;DHT22;45916;52.734;6.544;2022-10-17T01:05:29;13.50;99.90
60039;DHT22;45916;52.734;6.544;2022-10-17T01:07:55;13.50;99.90
60039;DHT22;45916;52.734;6.544;2022-10-17T01:10:21;13.50;99.90
60039;DHT22;45916;52.734;6.544;2022-10-17T01:13:13;13.50;99.90
60039;DHT22;45916;52.734;6.544;2022-10-17T01:15:51;13.40;99.90
60039;DHT22;45916;52.734;6.544;2022-10-17T01:18:36;13.30;99.90
60039;DHT22;45916;52.734;6.544;2022-10-17T01:29:42;13.10;99.90
60039;DHT22;45916;52.734;6.544;2022-10-17T01:34:51;13.00;99.90
60039;DHT22;45916;52.734;6.544;2022-10-17T01:37:32;12.90;99.90
60039;DHT22;45916;52.734;6.544;2022-10-17T01:40:19;12.90;99.90
60039;DHT22;45916;52.734;6.544;2022-10-17T01:45:29;12.90;99.90
60039;DHT22;45916;52.734;6.544;2022-10-17T01:47:58;12.90;99.90
60039;DHT22;45916;52.734;6.544;2022-10-17T01:50:33;12.90;99.90
60039;DHT22;45916;52.734;6.544;2022-10-17T01:53:08;12.80;99.90
60039;DHT22;45916;52.734;6.544;2022-10-17T01:55:38;12.80;99.90
60039;DHT22;45916;52.734;6.544;2022-10-17T01:58:12;12.80;99.90
60039;DHT22;45916;52.734;6.544;2022-10-17T02:00:41;12.70;99.90
60039;DHT22;45916;52.734;6.544;2022-10-17T02:03:11;12.70;99.90
60039;DHT22;45916;52.734;6.544;2022-10-17T02:05:39;12.70;99.90
60039;DHT22;45916;52.734;6.544;2022-10-17T02:08:06;12.60;99.90
60039;DHT22;45916;52.734;6.544;2022-10-17T02:10:53;12.60;99.90
60039;DHT22;45916;52.734;6.544;2022-10-17T02:21:08;12.60;99.90
60039;DHT22;45916;52.734;6.544;2022-10-17T02:23:52;12.60;99.90
60039;DHT22;45916;52.734;6.544;2022-10-17T02:26:20;12.60;99.90
60039;DHT22;45916;52.734;6.544;2022-10-17T02:29:09;12.60;99.90
60039;DHT22;45916;52.734;6.544;2022-10-17T02:31:42;12.60;99.90
60039;DHT22;45916;52.734;6.544;2022-10-17T02:34:23;12.60;99.90
60039;DHT22;45916;52.734;6.544;2022-10-17T02:36:57;12.60;99.90
60039;DHT22;45916;52.734;6.544;2022-10-17T02:39:26;12.60;99.90
60039;DHT22;45916;52.734;6.544;2022-10-17T02:41:54;12.60;99.90
60039;DHT22;45916;52.734;6.544;2022-10-17T02:44:22;12.70;99.90
60039;DHT22;45916;52.734;6.544;2022-10-17T02:46:55;12.70;99.90
60039;DHT22;45916;52.734;6.544;2022-10-17T02:49:27;12.70;99.90
60039;DHT22;45916;52.734;6.544;2022-10-17T02:54:35;12.80;99.90
60039;DHT22;45916;52.734;6.544;2022-10-17T02:59:36;12.80;99.90
60039;DHT22;45916;52.734;6.544;2022-10-17T03:02:04;12.80;99.90
60039;DHT22;45916;52.734;6.544;2022-10-17T03:04:30;12.70;99.90
60039;DHT22;45916;52.734;6.544;2022-10-17T03:06:56;12.80;99.90
60039;DHT22;45916;52.734;6.544;2022-10-17T03:09:22;12.70;99.90
60039;DHT22;45916;52.734;6.544;2022-10-17T03:11:48;12.70;99.90
60039;DHT22;45916;52.734;6.544;2022-10-17T03:14:13;12.70;99.90
60039;DHT22;45916;52.734;6.544;2022-10-17T03:16:39;12.60;99.90
60039;DHT22;45916;52.734;6.544;2022-10-17T03:19:05;12.70;99.90
60039;DHT22;45916;52.734;6.544;2022-10-17T03:21:30;12.70;99.90
60039;DHT22;45916;52.734;6.544;2022-10-17T03:23:56;12.70;99.90
60039;DHT22;45916;52.734;6.544;2022-10-17T03:26:22;12.70;99.90
60039;DHT22;45916;52.734;6.544;2022-10-17T03:28:47;12.70;99.90
60039;DHT22;45916;52.734;6.544;2022-10-17T03:31:15;12.70;99.90
60039;DHT22;45916;52.734;6.544;2022-10-17T03:33:41;12.60;99.90
60039;DHT22;45916;52.734;6.544;2022-10-17T03:36:09;12.60;99.90
60039;DHT22;45916;52.734;6.544;2022-10-17T03:38:35;12.60;99.90
60039;DHT22;45916;52.734;6.544;2022-10-17T03:41:02;12.70;99.90
60039;DHT22;45916;52.734;6.544;2022-10-17T03:43:29;12.70;99.90
60039;DHT22;45916;52.734;6.544;2022-10-17T03:45:57;12.80;99.90
60039;DHT22;45916;52.734;6.544;2022-10-17T03:48:27;12.80;99.90
60039;DHT22;45916;52.734;6.544;2022-10-17T03:51:02;12.80;99.90
60039;DHT22;45916;52.734;6.544;2022-10-17T03:53:28;13.00;99.90
60039;DHT22;45916;52.734;6.544;2022-10-17T03:55:54;13.00;99.90
60039;DHT22;45916;52.734;6.544;2022-10-17T03:58:19;13.10;99.90
60039;DHT22;45916;52.734;6.544;2022-10-17T04:00:45;13.10;99.90
60039;DHT22;45916;52.734;6.544;2022-10-17T04:03:10;13.10;99.90
60039;DHT22;45916;52.734;6.544;2022-10-17T04:05:36;13.10;99.90
60039;DHT22;45916;52.734;6.544;2022-10-17T04:08:02;13.10;99.90
60039;DHT22;45916;52.734;6.544;2022-10-17T04:10:27;13.20;99.90
60039;DHT22;45916;52.734;6.544;2022-10-17T04:12:54;13.20;99.90
60039;DHT22;45916;52.734;6.544;2022-10-17T04:15:19;13.20;99.90
60039;DHT22;45916;52.734;6.544;2022-10-17T04:17:45;13.20;99.90
60039;DHT22;45916;52.734;6.544;2022-10-17T04:20:11;13.20;99.90
60039;DHT22;45916;52.734;6.544;2022-10-17T04:22:37;13.30;99.90
60039;DHT22;45916;52.734;6.544;2022-10-17T04:25:03;13.30;99.90
60039;DHT22;45916;52.734;6.544;2022-10-17T04:27:29;13.30;99.90
60039;DHT22;45916;52.734;6.544;2022-10-17T04:29:54;13.40;99.90
60039;DHT22;45916;52.734;6.544;2022-10-17T04:32:20;13.40;99.90
60039;DHT22;45916;52.734;6.544;2022-10-17T04:34:49;13.50;99.90
60039;DHT22;45916;52.734;6.544;2022-10-17T04:37:15;13.50;99.90
60039;DHT22;45916;52.734;6.544;2022-10-17T04:39:43;13.50;99.90
60039;DHT22;45916;52.734;6.544;2022-10-17T04:42:09;13.60;99.90
60039;DHT22;45916;52.734;6.544;2022-10-17T04:44:34;13.60;99.90
60039;DHT22;45916;52.734;6.544;2022-10-17T04:47:00;13.70;99.90
60039;DHT22;45916;52.734;6.544;2022-10-17T04:49:26;13.70;99.90
60039;DHT22;45916;52.734;6.544;2022-10-17T04:51:51;13.80;99.90
60039;DHT22;45916;52.734;6.544;2022-10-17T04:54:17;13.80;99.90
60039;DHT22;45916;52.734;6.544;2022-10-17T04:56:43;13.80;99.90
60039;DHT22;45916;52.734;6.544;2022-10-17T04:59:09;13.80;99.90
60039;DHT22;45916;52.734;6.544;2022-10-17T05:01:34;13.90;99.90
60039;DHT22;45916;52.734;6.544;2022-10-17T05:04:00;13.90;99.90
60039;DHT22;45916;52.734;6.544;2022-10-17T05:06:26;13.90;99.90
60039;DHT22;45916;52.734;6.544;2022-10-17T05:08:56;13.90;99.90
60039;DHT22;45916;52.734;6.544;2022-10-17T05:11:25;14.00;99.90
60039;DHT22;45916;52.734;6.544;2022-10-17T05:13:57;14.10;99.90
60039;DHT22;45916;52.734;6.544;2022-10-17T05:16:24;14.10;99.90
60039;DHT22;45916;52.734;6.544;2022-10-17T05:18:52;14.20;99.90
60039;DHT22;45916;52.734;6.544;2022-10-17T05:21:18;14.20;99.90
60039;DHT22;45916;52.734;6.544;2022-10-17T05:23:45;14.30;99.90
60039;DHT22;45916;52.734;6.544;2022-10-17T05:26:11;14.30;99.90
60039;DHT22;45916;52.734;6.544;2022-10-17T05:28:37;14.30;99.90
60039;DHT22;45916;52.734;6.544;2022-10-17T05:31:04;14.30;99.90
60039;DHT22;45916;52.734;6.544;2022-10-17T05:33:29;14.40;99.90
60039;DHT22;45916;52.734;6.544;2022-10-17T05:35:55;14.40;99.90
60039;DHT22;45916;52.734;6.544;2022-10-17T05:38:21;14.40;99.90
60039;DHT22;45916;52.734;6.544;2022-10-17T05:40:46;14.50;99.90
60039;DHT22;45916;52.734;6.544;2022-10-17T05:43:12;14.50;99.90
60039;DHT22;45916;52.734;6.544;2022-10-17T05:45:39;14.60;99.90
60039;DHT22;45916;52.734;6.544;2022-10-17T05:48:05;14.70;99.90
60039;DHT22;45916;52.734;6.544;2022-10-17T05:50:31;14.70;99.90
60039;DHT22;45916;52.734;6.544;2022-10-17T05:52:57;14.70;99.90
60039;DHT22;45916;52.734;6.544;2022-10-17T05:55:23;14.70;99.90
60039;DHT22;45916;52.734;6.544;2022-10-17T05:57:51;14.80;99.90
60039;DHT22;45916;52.734;6.544;2022-10-17T06:00:19;14.80;99.90
60039;DHT22;45916;52.734;6.544;2022-10-17T06:02:45;14.80;99.90
60039;DHT22;45916;52.734;6.544;2022-10-17T06:05:11;14.80;99.90
60039;DHT22;45916;52.734;6.544;2022-10-17T06:07:37;14.80;99.90
60039;DHT22;45916;52.734;6.544;2022-10-17T06:10:03;14.90;99.90
60039;DHT22;45916;52.734;6.544;2022-10-17T06:12:29;14.90;99.90
60039;DHT22;45916;52.734;6.544;2022-10-17T06:14:54;15.00;99.90
60039;DHT22;45916;52.734;6.544;2022-10-17T06:17:20;15.00;99.90
60039;DHT22;45916;52.734;6.544;2022-10-17T06:19:46;15.10;99.90
60039;DHT22;45916;52.734;6.544;2022-10-17T06:22:12;15.10;99.90
60039;DHT22;45916;52.734;6.544;2022-10-17T06:24:38;15.10;99.90
60039;DHT22;45916;52.734;6.544;2022-10-17T06:27:04;15.20;99.90
60039;DHT22;45916;52.734;6.544;2022-10-17T06:29:29;15.20;99.90
60039;DHT22;45916;52.734;6.544;2022-10-17T06:31:55;15.30;99.90
60039;DHT22;45916;52.734;6.544;2022-10-17T06:34:21;15.30;99.90
60039;DHT22;45916;52.734;6.544;2022-10-17T06:36:47;15.30;99.90
60039;DHT22;45916;52.734;6.544;2022-10-17T06:39:13;15.30;99.90
60039;DHT22;45916;52.734;6.544;2022-10-17T06:41:39;15.30;99.90
60039;DHT22;45916;52.734;6.544;2022-10-17T06:44:06;15.30;99.90
60039;DHT22;45916;52.734;6.544;2022-10-17T06:46:39;15.30;99.90
60039;DHT22;45916;52.734;6.544;2022-10-17T06:49:05;15.40;99.90
60039;DHT22;45916;52.734;6.544;2022-10-17T06:51:35;15.40;99.90
60039;DHT22;45916;52.734;6.544;2022-10-17T06:54:01;15.50;99.90
60039;DHT22;45916;52.734;6.544;2022-10-17T06:56:26;15.60;99.90
60039;DHT22;45916;52.734;6.544;2022-10-17T06:58:52;15.60;99.90
60039;DHT22;45916;52.734;6.544;2022-10-17T07:01:19;15.60;99.90
60039;DHT22;45916;52.734;6.544;2022-10-17T07:03:47;15.80;99.90
60039;DHT22;45916;52.734;6.544;2022-10-17T07:06:14;16.00;99.90
60039;DHT22;45916;52.734;6.544;2022-10-17T07:08:43;16.20;99.90
60039;DHT22;45916;52.734;6.544;2022-10-17T07:11:15;16.40;99.90
60039;DHT22;45916;52.734;6.544;2022-10-17T07:13:41;16.50;99.90
60039;DHT22;45916;52.734;6.544;2022-10-17T07:16:07;16.80;99.90
60039;DHT22;45916;52.734;6.544;2022-10-17T07:18:33;16.90;99.90
60039;DHT22;45916;52.734;6.544;2022-10-17T07:20:59;17.30;99.90
60039;DHT22;45916;52.734;6.544;2022-10-17T07:23:25;17.80;99.90
60039;DHT22;45916;52.734;6.544;2022-10-17T07:25:51;18.40;99.90
60039;DHT22;45916;52.734;6.544;2022-10-17T07:28:17;18.60;99.90
60039;DHT22;45916;52.734;6.544;2022-10-17T07:30:43;18.80;99.90
60039;DHT22;45916;52.734;6.544;2022-10-17T07:33:09;18.90;99.90
60039;DHT22;45916;52.734;6.544;2022-10-17T07:35:37;19.20;99.90
60039;DHT22;45916;52.734;6.544;2022-10-17T07:38:05;19.40;99.90
60039;DHT22;45916;52.734;6.544;2022-10-17T07:40:31;19.90;99.90
60039;DHT22;45916;52.734;6.544;2022-10-17T07:42:57;20.30;99.90
60039;DHT22;45916;52.734;6.544;2022-10-17T07:45:22;20.50;99.90
60039;DHT22;45916;52.734;6.544;2022-10-17T07:47:48;20.40;99.90
60039;DHT22;45916;52.734;6.544;2022-10-17T07:50:14;19.90;99.90
60039;DHT22;45916;52.734;6.544;2022-10-17T07:52:39;19.60;99.90
60039;DHT22;45916;52.734;6.544;2022-10-17T07:55:08;19.30;99.90
60039;DHT22;45916;52.734;6.544;2022-10-17T07:57:34;19.10;99.90
60039;DHT22;45916;52.734;6.544;2022-10-17T07:59:59;18.90;99.90
60039;DHT22;45916;52.734;6.544;2022-10-17T08:02:26;18.70;99.90
60039;DHT22;45916;52.734;6.544;2022-10-17T08:04:52;18.50;99.90
60039;DHT22;45916;52.734;6.544;2022-10-17T08:07:19;18.30;99.90
60039;DHT22;45916;52.734;6.544;2022-10-17T08:09:46;18.20;99.90
60039;DHT22;45916;52.734;6.544;2022-10-17T08:12:12;18.10;99.90
60039;DHT22;45916;52.734;6.544;2022-10-17T08:14:42;17.90;99.90
60039;DHT22;45916;52.734;6.544;2022-10-17T08:17:08;17.80;99.90
60039;DHT22;45916;52.734;6.544;2022-10-17T08:19:37;17.70;99.90
60039;DHT22;45916;52.734;6.544;2022-10-17T08:22:03;17.70;99.90
60039;DHT22;45916;52.734;6.544;2022-10-17T08:24:29;17.60;99.90
60039;DHT22;45916;52.734;6.544;2022-10-17T08:26:54;17.60;99.90
60039;DHT22;45916;52.734;6.544;2022-10-17T08:29:22;17.60;99.90
60039;DHT22;45916;52.734;6.544;2022-10-17T08:31:48;17.60;99.90
60039;DHT22;45916;52.734;6.544;2022-10-17T08:34:14;17.50;99.90
60039;DHT22;45916;52.734;6.544;2022-10-17T08:36:40;17.50;99.90
60039;DHT22;45916;52.734;6.544;2022-10-17T08:39:05;17.50;99.90
60039;DHT22;45916;52.734;6.544;2022-10-17T08:46:58;17.50;99.90
60039;DHT22;45916;52.734;6.544;2022-10-17T08:50:04;17.60;99.90
60039;DHT22;45916;52.734;6.544;2022-10-17T08:52:38;17.70;99.90
60039;DHT22;45916;52.734;6.544;2022-10-17T08:55:17;17.80;99.90
60039;DHT22;45916;52.734;6.544;2022-10-17T08:57:44;17.90;99.90
60039;DHT22;45916;52.734;6.544;2022-10-17T09:00:29;17.90;99.90
60039;DHT22;45916;52.734;6.544;2022-10-17T09:03:13;17.90;99.90
60039;DHT22;45916;52.734;6.544;2022-10-17T09:06:08;17.90;99.90
60039;DHT22;45916;52.734;6.544;2022-10-17T09:16:58;17.80;99.90
60039;DHT22;45916;52.734;6.544;2022-10-17T09:19:36;17.80;99.90
60039;DHT22;45916;52.734;6.544;2022-10-17T09:22:16;17.90;99.90
60039;DHT22;45916;52.734;6.544;2022-10-17T09:24:59;17.90;99.90
60039;DHT22;45916;52.734;6.544;2022-10-17T09:28:51;18.00;99.90
60039;DHT22;45916;52.734;6.544;2022-10-17T09:30:50;18.00;99.90
60039;DHT22;45916;52.734;6.544;2022-10-17T09:33:25;17.90;99.90
60039;DHT22;45916;52.734;6.544;2022-10-17T09:35:53;17.90;99.90
60039;DHT22;45916;52.734;6.544;2022-10-17T09:38:22;17.80;99.90
60039;DHT22;45916;52.734;6.544;2022-10-17T09:40:58;17.70;99.90
60039;DHT22;45916;52.734;6.544;2022-10-17T09:43:24;17.70;99.90
60039;DHT22;45916;52.734;6.544;2022-10-17T09:46:07;17.70;99.90
60039;DHT22;45916;52.734;6.544;2022-10-17T09:48:49;17.60;99.90
60039;DHT22;45916;52.734;6.544;2022-10-17T09:51:16;17.50;99.90
60039;DHT22;45916;52.734;6.544;2022-10-17T09:53:46;17.40;99.90
60039;DHT22;45916;52.734;6.544;2022-10-17T09:56:17;17.40;99.90
60039;DHT22;45916;52.734;6.544;2022-10-17T09:58:51;17.30;99.90
60039;DHT22;45916;52.734;6.544;2022-10-17T10:03:48;17.30;99.90
60039;DHT22;45916;52.734;6.544;2022-10-17T10:06:32;17.20;99.90
60039;DHT22;45916;52.734;6.544;2022-10-17T10:08:58;17.10;99.90
60039;DHT22;45916;52.734;6.544;2022-10-17T10:16:45;17.10;99.90
60039;DHT22;45916;52.734;6.544;2022-10-17T10:19:48;17.10;99.90
60039;DHT22;45916;52.734;6.544;2022-10-17T10:22:16;17.20;99.90
60039;DHT22;45916;52.734;6.544;2022-10-17T10:24:41;17.10;99.90
60039;DHT22;45916;52.734;6.544;2022-10-17T10:27:14;17.10;99.90
60039;DHT22;45916;52.734;6.544;2022-10-17T10:29:42;17.10;99.90
60039;DHT22;45916;52.734;6.544;2022-10-17T10:32:22;17.00;99.90
60039;DHT22;45916;52.734;6.544;2022-10-17T10:37:18;17.00;99.90
60039;DHT22;45916;52.734;6.544;2022-10-17T10:39:56;17.00;99.90
60039;DHT22;45916;52.734;6.544;2022-10-17T10:42:29;17.00;99.90
60039;DHT22;45916;52.734;6.544;2022-10-17T10:45:17;17.00;99.90
60039;DHT22;45916;52.734;6.544;2022-10-17T10:47:58;17.00;99.90
60039;DHT22;45916;52.734;6.544;2022-10-17T10:50:42;17.00;99.90
60039;DHT22;45916;52.734;6.544;2022-10-17T10:59:08;16.80;99.90
60039;DHT22;45916;52.734;6.544;2022-10-17T11:06:45;16.80;99.90
60039;DHT22;45916;52.734;6.544;2022-10-17T11:12:04;16.80;99.90
60039;DHT22;45916;52.734;6.544;2022-10-17T11:17:27;17.00;99.90
60039;DHT22;45916;52.734;6.544;2022-10-17T11:20:25;17.00;99.90
60039;DHT22;45916;52.734;6.544;2022-10-17T11:22:56;17.10;99.90
60039;DHT22;45916;52.734;6.544;2022-10-17T11:25:34;17.00;99.90
60039;DHT22;45916;52.734;6.544;2022-10-17T11:28:01;17.10;99.90
60039;DHT22;45916;52.734;6.544;2022-10-17T11:30:35;17.10;99.90
60039;DHT22;45916;52.734;6.544;2022-10-17T11:33:03;17.10;99.90
60039;DHT22;45916;52.734;6.544;2022-10-17T11:35:36;17.10;99.90
60039;DHT22;45916;52.734;6.544;2022-10-17T11:38:19;17.10;99.90
60039;DHT22;45916;52.734;6.544;2022-10-17T11:40:49;17.10;99.90
60039;DHT22;45916;52.734;6.544;2022-10-17T11:43:33;17.10;99.90
60039;DHT22;45916;52.734;6.544;2022-10-17T11:46:21;17.20;99.90
60039;DHT22;45916;52.734;6.544;2022-10-17T11:49:13;17.30;99.90
60039;DHT22;45916;52.734;6.544;2022-10-17T11:54:49;17.30;99.90
60039;DHT22;45916;52.734;6.544;2022-10-17T12:08:32;17.40;99.90
60039;DHT22;45916;52.734;6.544;2022-10-17T12:13:51;17.70;99.90
60039;DHT22;45916;52.734;6.544;2022-10-17T12:18:47;17.90;99.90
60039;DHT22;45916;52.734;6.544;2022-10-17T12:21:13;18.00;99.90
60039;DHT22;45916;52.734;6.544;2022-10-17T12:23:40;18.00;99.90
60039;DHT22;45916;52.734;6.544;2022-10-17T12:26:09;18.10;99.90
60039;DHT22;45916;52.734;6.544;2022-10-17T12:28:43;18.10;99.90
60039;DHT22;45916;52.734;6.544;2022-10-17T12:33:52;18.00;99.90
60039;DHT22;45916;52.734;6.544;2022-10-17T12:41:13;18.10;99.90
60039;DHT22;45916;52.734;6.544;2022-10-17T12:43:45;18.20;99.90
60039;DHT22;45916;52.734;6.544;2022-10-17T12:46:11;18.20;99.90
60039;DHT22;45916;52.734;6.544;2022-10-17T12:51:06;18.40;99.90
60039;DHT22;45916;52.734;6.544;2022-10-17T12:56:39;18.40;99.90
60039;DHT22;45916;52.734;6.544;2022-10-17T12:59:32;18.40;99.90
60039;DHT22;45916;52.734;6.544;2022-10-17T13:02:02;18.30;99.90
60039;DHT22;45916;52.734;6.544;2022-10-17T13:04:28;18.20;99.90
60039;DHT22;45916;52.734;6.544;2022-10-17T13:06:56;18.20;99.90
60039;DHT22;45916;52.734;6.544;2022-10-17T13:09:30;18.10;99.90
60039;DHT22;45916;52.734;6.544;2022-10-17T13:12:00;18.10;99.90
60039;DHT22;45916;52.734;6.544;2022-10-17T13:14:27;18.00;99.90
60039;DHT22;45916;52.734;6.544;2022-10-17T13:16:57;17.90;99.90
60039;DHT22;45916;52.734;6.544;2022-10-17T13:19:38;17.90;99.90
60039;DHT22;45916;52.734;6.544;2022-10-17T13:22:20;17.80;99.90
60039;DHT22;45916;52.734;6.544;2022-10-17T13:24:48;17.80;99.90
60039;DHT22;45916;52.734;6.544;2022-10-17T13:29:50;17.70;99.90
60039;DHT22;45916;52.734;6.544;2022-10-17T13:32:16;17.70;99.90
60039;DHT22;45916;52.734;6.544;2022-10-17T13:34:42;17.60;99.90
60039;DHT22;45916;52.734;6.544;2022-10-17T13:37:11;17.60;99.90
60039;DHT22;45916;52.734;6.544;2022-10-17T13:39:43;17.60;99.90
60039;DHT22;45916;52.734;6.544;2022-10-17T13:42:36;17.50;99.90
60039;DHT22;45916;52.734;6.544;2022-10-17T13:45:03;17.30;99.90
60039;DHT22;45916;52.734;6.544;2022-10-17T13:47:35;17.20;99.90
60039;DHT22;45916;52.734;6.544;2022-10-17T13:50:02;17.00;99.90
60039;DHT22;45916;52.734;6.544;2022-10-17T13:52:29;17.00;99.90
60039;DHT22;45916;52.734;6.544;2022-10-17T13:55:06;16.90;99.90
60039;DHT22;45916;52.734;6.544;2022-10-17T13:57:32;16.80;99.90
60039;DHT22;45916;52.734;6.544;2022-10-17T14:00:02;16.60;99.90
60039;DHT22;45916;52.734;6.544;2022-10-17T14:02:31;16.50;99.90
60039;DHT22;45916;52.734;6.544;2022-10-17T14:07:40;16.30;99.90
60039;DHT22;45916;52.734;6.544;2022-10-17T14:10:22;16.20;99.90
60039;DHT22;45916;52.734;6.544;2022-10-17T14:12:52;16.20;99.90
60039;DHT22;45916;52.734;6.544;2022-10-17T14:15:18;16.10;99.90
60039;DHT22;45916;52.734;6.544;2022-10-17T14:17:54;16.10;99.90
60039;DHT22;45916;52.734;6.544;2022-10-17T14:20:21;16.00;99.90
60039;DHT22;45916;52.734;6.544;2022-10-17T14:22:48;16.10;99.90
60039;DHT22;45916;52.734;6.544;2022-10-17T14:30:41;16.00;99.90
60039;DHT22;45916;52.734;6.544;2022-10-17T14:33:17;15.90;99.90
60039;DHT22;45916;52.734;6.544;2022-10-17T14:35:55;15.90;99.90
60039;DHT22;45916;52.734;6.544;2022-10-17T14:38:22;15.90;99.90
60039;DHT22;45916;52.734;6.544;2022-10-17T14:41:01;15.90;99.90
60039;DHT22;45916;52.734;6.544;2022-10-17T14:43:29;15.80;99.90
60039;DHT22;45916;52.734;6.544;2022-10-17T14:46:00;15.80;99.90
60039;DHT22;45916;52.734;6.544;2022-10-17T14:48:28;15.80;99.90
60039;DHT22;45916;52.734;6.544;2022-10-17T14:51:16;15.80;99.90
60039;DHT22;45916;52.734;6.544;2022-10-17T14:54:41;15.80;99.90
60039;DHT22;45916;52.734;6.544;2022-10-17T14:56:50;15.80;99.90
60039;DHT22;45916;52.734;6.544;2022-10-17T14:59:16;15.80;99.90
60039;DHT22;45916;52.734;6.544;2022-10-17T15:01:47;15.80;99.90
60039;DHT22;45916;52.734;6.544;2022-10-17T15:04:14;15.90;99.90
60039;DHT22;45916;52.734;6.544;2022-10-17T15:06:40;15.90;99.90
60039;DHT22;45916;52.734;6.544;2022-10-17T15:09:06;16.00;99.90
60039;DHT22;45916;52.734;6.544;2022-10-17T15:11:32;16.10;99.90
60039;DHT22;45916;52.734;6.544;2022-10-17T15:13:58;16.10;99.90
60039;DHT22;45916;52.734;6.544;2022-10-17T15:16:25;16.20;99.90
60039;DHT22;45916;52.734;6.544;2022-10-17T15:18:52;16.20;99.90
60039;DHT22;45916;52.734;6.544;2022-10-17T15:21:20;16.20;99.90
60039;DHT22;45916;52.734;6.544;2022-10-17T15:23:48;16.20;99.90
60039;DHT22;45916;52.734;6.544;2022-10-17T15:26:21;16.20;99.90
60039;DHT22;45916;52.734;6.544;2022-10-17T15:28:48;16.20;99.90
60039;DHT22;45916;52.734;6.544;2022-10-17T15:31:19;16.20;99.90
60039;DHT22;45916;52.734;6.544;2022-10-17T15:33:46;16.20;99.90
60039;DHT22;45916;52.734;6.544;2022-10-17T15:36:27;16.20;99.90
60039;DHT22;45916;52.734;6.544;2022-10-17T15:38:56;16.10;99.90
60039;DHT22;45916;52.734;6.544;2022-10-17T15:41:27;16.10;99.90
60039;DHT22;45916;52.734;6.544;2022-10-17T15:43:53;16.00;99.90
60039;DHT22;45916;52.734;6.544;2022-10-17T15:46:21;15.90;99.90
60039;DHT22;45916;52.734;6.544;2022-10-17T15:48:48;15.90;99.90
60039;DHT22;45916;52.734;6.544;2022-10-17T15:51:15;15.80;99.90
60039;DHT22;45916;52.734;6.544;2022-10-17T15:53:41;15.70;99.90
60039;DHT22;45916;52.734;6.544;2022-10-17T15:56:07;15.60;99.90
60039;DHT22;45916;52.734;6.544;2022-10-17T15:58:39;15.50;99.90
60039;DHT22;45916;52.734;6.544;2022-10-17T16:01:06;15.50;99.90
60039;DHT22;45916;52.734;6.544;2022-10-17T16:03:32;15.40;99.90
60039;DHT22;45916;52.734;6.544;2022-10-17T16:05:58;15.40;99.90
60039;DHT22;45916;52.734;6.544;2022-10-17T16:08:24;15.30;99.90
60039;DHT22;45916;52.734;6.544;2022-10-17T16:10:51;15.30;99.90
60039;DHT22;45916;52.734;6.544;2022-10-17T16:13:18;15.30;99.90
60039;DHT22;45916;52.734;6.544;2022-10-17T16:15:44;15.20;99.90
60039;DHT22;45916;52.734;6.544;2022-10-17T16:18:09;15.20;99.90
60039;DHT22;45916;52.734;6.544;2022-10-17T16:20:35;15.10;99.90
60039;DHT22;45916;52.734;6.544;2022-10-17T16:23:03;15.00;99.90
60039;DHT22;45916;52.734;6.544;2022-10-17T16:25:30;15.00;99.90
60039;DHT22;45916;52.734;6.544;2022-10-17T16:27:58;14.90;99.90
60039;DHT22;45916;52.734;6.544;2022-10-17T16:30:25;14.90;99.90
60039;DHT22;45916;52.734;6.544;2022-10-17T16:32:52;14.80;99.90
60039;DHT22;45916;52.734;6.544;2022-10-17T16:35:21;14.70;99.90
60039;DHT22;45916;52.734;6.544;2022-10-17T16:37:47;14.70;99.90
60039;DHT22;45916;52.734;6.544;2022-10-17T16:40:13;14.60;99.90
60039;DHT22;45916;52.734;6.544;2022-10-17T16:42:39;14.50;99.90
60039;DHT22;45916;52.734;6.544;2022-10-17T16:45:05;14.50;99.90
60039;DHT22;45916;52.734;6.544;2022-10-17T16:47:31;14.40;99.90
60039;DHT22;45916;52.734;6.544;2022-10-17T16:49:57;14.30;99.90
60039;DHT22;45916;52.734;6.544;2022-10-17T16:52:22;14.30;99.90
60039;DHT22;45916;52.734;6.544;2022-10-17T16:54:48;14.20;99.90
60039;DHT22;45916;52.734;6.544;2022-10-17T16:57:14;14.20;99.90
60039;DHT22;45916;52.734;6.544;2022-10-17T16:59:39;14.20;99.90
60039;DHT22;45916;52.734;6.544;2022-10-17T17:02:05;14.20;99.90
60039;DHT22;45916;52.734;6.544;2022-10-17T17:04:31;14.10;99.90
60039;DHT22;45916;52.734;6.544;2022-10-17T17:06:57;14.10;99.90
60039;DHT22;45916;52.734;6.544;2022-10-17T17:09:22;14.00;99.90
60039;DHT22;45916;52.734;6.544;2022-10-17T17:11:48;14.00;99.90
60039;DHT22;45916;52.734;6.544;2022-10-17T17:14:14;14.00;99.90
60039;DHT22;45916;52.734;6.544;2022-10-17T17:16:40;14.00;99.90
60039;DHT22;45916;52.734;6.544;2022-10-17T17:19:10;13.90;99.90
60039;DHT22;45916;52.734;6.544;2022-10-17T17:21:36;14.00;99.90
60039;DHT22;45916;52.734;6.544;2022-10-17T17:24:03;13.90;99.90
60039;DHT22;45916;52.734;6.544;2022-10-17T17:26:32;13.90;99.90
60039;DHT22;45916;52.734;6.544;2022-10-17T17:29:00;13.90;99.90
60039;DHT22;45916;52.734;6.544;2022-10-17T17:31:28;13.90;99.90
60039;DHT22;45916;52.734;6.544;2022-10-17T17:33:55;13.80;99.90
60039;DHT22;45916;52.734;6.544;2022-10-17T17:36:29;13.90;99.90